sensor_id;sensor_type;location;lat;lon;timestamp;temperature;humidity
80232;DHT22;74189;42.124;24.752;2024-01-10T00:00:49;0.50;55.30
80232;DHT22;74189;42.124;24.752;2024-01-10T00:03:14;0.50;54.90
80232;DHT22;74189;42.124;24.752;2024-01-10T00:05:40;0.60;55.00
80232;DHT22;74189;42.124;24.752;2024-01-10T00:08:05;0.70;54.60
80232;DHT22;74189;42.124;24.752;2024-01-10T00:10:31;0.80;54.10
80232;DHT22;74189;42.124;24.752;2024-01-10T00:12:57;0.80;53.90
80232;DHT22;74189;42.124;24.752;2024-01-10T00:15:22;0.80;54.10
80232;DHT22;74189;42.124;24.752;2024-01-10T00:17:48;0.80;53.90
80232;DHT22;74189;42.124;24.752;2024-01-10T00:20:14;0.80;54.00
80232;DHT22;74189;42.124;24.752;2024-01-10T00:22:39;0.80;54.30
80232;DHT22;74189;42.124;24.752;2024-01-10T00:25:05;0.90;53.80
80232;DHT22;74189;42.124;24.752;2024-01-10T00:27:31;0.80;53.40
80232;DHT22;74189;42.124;24.752;2024-01-10T00:29:56;0.70;53.30
80232;DHT22;74189;42.124;24.752;2024-01-10T00:32:22;0.80;53.30
80232;DHT22;74189;42.124;24.752;2024-01-10T00:34:48;0.80;52.90
80232;DHT22;74189;42.124;24.752;2024-01-10T00:37:14;0.80;53.00
80232;DHT22;74189;42.124;24.752;2024-01-10T00:39:39;0.80;53.50
80232;DHT22;74189;42.124;24.752;2024-01-10T00:42:05;0.80;53.60
80232;DHT22;74189;42.124;24.752;2024-01-10T00:44:30;0.80;53.70
80232;DHT22;74189;42.124;24.752;2024-01-10T00:46:56;0.90;53.50
80232;DHT22;74189;42.124;24.752;2024-01-10T00:49:22;0.80;53.30
80232;DHT22;74189;42.124;24.752;2024-01-10T00:51:47;0.80;53.40
80232;DHT22;74189;42.124;24.752;2024-01-10T00:54:13;0.80;53.90
80232;DHT22;74189;42.124;24.752;2024-01-10T00:56:38;0.80;53.40
80232;DHT22;74189;42.124;24.752;2024-01-10T00:59:04;0.90;53.20
80232;DHT22;74189;42.124;24.752;2024-01-10T01:01:30;0.90;53.20
80232;DHT22;74189;42.124;24.752;2024-01-10T01:03:55;0.90;53.30
80232;DHT22;74189;42.124;24.752;2024-01-10T01:06:21;1.00;53.50
80232;DHT22;74189;42.124;24.752;2024-01-10T01:08:47;1.00;53.30
80232;DHT22;74189;42.124;24.752;2024-01-10T01:11:13;0.90;53.30
80232;DHT22;74189;42.124;24.752;2024-01-10T01:13:40;0.90;53.40
80232;DHT22;74189;42.124;24.752;2024-01-10T01:16:06;0.90;53.10
80232;DHT22;74189;42.124;24.752;2024-01-10T01:18:31;0.90;53.20
80232;DHT22;74189;42.124;24.752;2024-01-10T01:20:58;0.90;52.90
80232;DHT22;74189;42.124;24.752;2024-01-10T01:23:23;0.80;52.70
80232;DHT22;74189;42.124;24.752;2024-01-10T01:25:49;0.80;53.00
80232;DHT22;74189;42.124;24.752;2024-01-10T01:28:16;0.80;53.20
80232;DHT22;74189;42.124;24.752;2024-01-10T01:30:41;0.80;53.20
80232;DHT22;74189;42.124;24.752;2024-01-10T01:33:07;0.70;53.30
80232;DHT22;74189;42.124;24.752;2024-01-10T01:35:33;0.80;53.50
80232;DHT22;74189;42.124;24.752;2024-01-10T01:37:58;0.80;53.20
80232;DHT22;74189;42.124;24.752;2024-01-10T01:40:24;0.60;53.10
80232;DHT22;74189;42.124;24.752;2024-01-10T01:42:49;0.70;53.40
80232;DHT22;74189;42.124;24.752;2024-01-10T01:45:15;0.70;53.20
80232;DHT22;74189;42.124;24.752;2024-01-10T01:47:41;0.80;53.30
80232;DHT22;74189;42.124;24.752;2024-01-10T01:50:07;0.70;53.10
80232;DHT22;74189;42.124;24.752;2024-01-10T01:52:33;0.80;53.20
80232;DHT22;74189;42.124;24.752;2024-01-10T01:55:01;0.80;53.10
80232;DHT22;74189;42.124;24.752;2024-01-10T01:57:26;0.90;53.20
80232;DHT22;74189;42.124;24.752;2024-01-10T01:59:52;0.90;53.30
80232;DHT22;74189;42.124;24.752;2024-01-10T02:02:18;0.90;53.40
80232;DHT22;74189;42.124;24.752;2024-01-10T02:04:46;1.00;53.30
80232;DHT22;74189;42.124;24.752;2024-01-10T02:07:12;0.90;52.80
80232;DHT22;74189;42.124;24.752;2024-01-10T02:09:38;0.90;52.70
80232;DHT22;74189;42.124;24.752;2024-01-10T02:12:04;0.90;52.80
80232;DHT22;74189;42.124;24.752;2024-01-10T02:14:30;0.90;53.10
80232;DHT22;74189;42.124;24.752;2024-01-10T02:16:56;0.90;53.20
80232;DHT22;74189;42.124;24.752;2024-01-10T02:19:23;0.90;53.20
80232;DHT22;74189;42.124;24.752;2024-01-10T02:21:49;1.00;53.30
80232;DHT22;74189;42.124;24.752;2024-01-10T02:24:15;0.90;53.30
80232;DHT22;74189;42.124;24.752;2024-01-10T02:26:41;0.90;53.40
80232;DHT22;74189;42.124;24.752;2024-01-10T02:29:07;0.90;53.20
80232;DHT22;74189;42.124;24.752;2024-01-10T02:31:32;0.80;53.00
80232;DHT22;74189;42.124;24.752;2024-01-10T02:33:58;0.80;53.00
80232;DHT22;74189;42.124;24.752;2024-01-10T02:36:23;0.90;52.90
80232;DHT22;74189;42.124;24.752;2024-01-10T02:38:49;0.80;52.90
80232;DHT22;74189;42.124;24.752;2024-01-10T02:41:15;0.80;52.70
80232;DHT22;74189;42.124;24.752;2024-01-10T02:43:41;0.80;52.70
80232;DHT22;74189;42.124;24.752;2024-01-10T02:46:07;0.70;52.50
80232;DHT22;74189;42.124;24.752;2024-01-10T02:48:32;0.70;52.60
80232;DHT22;74189;42.124;24.752;2024-01-10T02:50:58;0.50;52.80
80232;DHT22;74189;42.124;24.752;2024-01-10T02:53:23;0.50;53.00
80232;DHT22;74189;42.124;24.752;2024-01-10T02:55:50;0.50;52.90
80232;DHT22;74189;42.124;24.752;2024-01-10T02:58:15;0.60;52.90
80232;DHT22;74189;42.124;24.752;2024-01-10T03:00:41;0.50;53.50
80232;DHT22;74189;42.124;24.752;2024-01-10T03:03:07;0.60;53.40
80232;DHT22;74189;42.124;24.752;2024-01-10T03:05:32;0.60;53.00
80232;DHT22;74189;42.124;24.752;2024-01-10T03:07:58;0.60;52.90
80232;DHT22;74189;42.124;24.752;2024-01-10T03:10:24;0.60;52.80
80232;DHT22;74189;42.124;24.752;2024-01-10T03:12:49;0.60;53.00
80232;DHT22;74189;42.124;24.752;2024-01-10T03:15:15;0.60;52.90
80232;DHT22;74189;42.124;24.752;2024-01-10T03:17:41;0.60;52.80
80232;DHT22;74189;42.124;24.752;2024-01-10T03:20:07;0.60;53.00
80232;DHT22;74189;42.124;24.752;2024-01-10T03:22:36;0.50;53.00
80232;DHT22;74189;42.124;24.752;2024-01-10T03:25:02;0.50;53.10
80232;DHT22;74189;42.124;24.752;2024-01-10T03:27:28;0.50;53.40
80232;DHT22;74189;42.124;24.752;2024-01-10T03:29:54;0.50;53.40
80232;DHT22;74189;42.124;24.752;2024-01-10T03:32:19;0.60;53.30
80232;DHT22;74189;42.124;24.752;2024-01-10T03:34:45;0.60;53.00
80232;DHT22;74189;42.124;24.752;2024-01-10T03:37:11;0.60;52.70
80232;DHT22;74189;42.124;24.752;2024-01-10T03:39:37;0.50;53.20
80232;DHT22;74189;42.124;24.752;2024-01-10T03:42:03;0.50;53.20
80232;DHT22;74189;42.124;24.752;2024-01-10T03:44:28;0.60;53.40
80232;DHT22;74189;42.124;24.752;2024-01-10T03:46:54;0.60;53.30
80232;DHT22;74189;42.124;24.752;2024-01-10T03:49:20;0.60;53.30
80232;DHT22;74189;42.124;24.752;2024-01-10T03:51:45;0.70;53.10
80232;DHT22;74189;42.124;24.752;2024-01-10T03:54:11;0.70;53.00
80232;DHT22;74189;42.124;24.752;2024-01-10T03:56:37;0.80;52.90
80232;DHT22;74189;42.124;24.752;2024-01-10T03:59:02;0.80;52.40
80232;DHT22;74189;42.124;24.752;2024-01-10T04:01:28;0.70;53.20
80232;DHT22;74189;42.124;24.752;2024-01-10T04:03:54;0.70;52.50
80232;DHT22;74189;42.124;24.752;2024-01-10T04:06:19;0.70;52.30
80232;DHT22;74189;42.124;24.752;2024-01-10T04:08:45;0.70;52.20
80232;DHT22;74189;42.124;24.752;2024-01-10T04:11:11;0.70;51.90
80232;DHT22;74189;42.124;24.752;2024-01-10T04:13:36;0.70;52.30
80232;DHT22;74189;42.124;24.752;2024-01-10T04:16:02;0.70;52.30
80232;DHT22;74189;42.124;24.752;2024-01-10T04:18:28;0.70;52.60
80232;DHT22;74189;42.124;24.752;2024-01-10T04:20:53;0.60;52.10
80232;DHT22;74189;42.124;24.752;2024-01-10T04:23:19;0.60;52.10
80232;DHT22;74189;42.124;24.752;2024-01-10T04:25:45;0.60;52.20
80232;DHT22;74189;42.124;24.752;2024-01-10T04:28:10;0.60;52.10
80232;DHT22;74189;42.124;24.752;2024-01-10T04:30:36;0.70;52.20
80232;DHT22;74189;42.124;24.752;2024-01-10T04:33:02;0.70;52.30
80232;DHT22;74189;42.124;24.752;2024-01-10T04:35:27;0.70;52.20
80232;DHT22;74189;42.124;24.752;2024-01-10T04:37:53;0.70;51.90
80232;DHT22;74189;42.124;24.752;2024-01-10T04:40:18;0.70;51.60
80232;DHT22;74189;42.124;24.752;2024-01-10T04:42:44;0.70;51.50
80232;DHT22;74189;42.124;24.752;2024-01-10T04:45:10;0.70;51.30
80232;DHT22;74189;42.124;24.752;2024-01-10T04:47:36;0.70;51.60
80232;DHT22;74189;42.124;24.752;2024-01-10T04:50:01;0.70;51.50
80232;DHT22;74189;42.124;24.752;2024-01-10T04:52:27;0.70;51.50
80232;DHT22;74189;42.124;24.752;2024-01-10T04:54:53;0.70;51.10
80232;DHT22;74189;42.124;24.752;2024-01-10T04:57:18;0.70;50.90
80232;DHT22;74189;42.124;24.752;2024-01-10T04:59:44;0.70;50.70
80232;DHT22;74189;42.124;24.752;2024-01-10T05:02:10;0.80;51.10
80232;DHT22;74189;42.124;24.752;2024-01-10T05:04:36;0.70;51.40
80232;DHT22;74189;42.124;24.752;2024-01-10T05:07:01;0.50;50.90
80232;DHT22;74189;42.124;24.752;2024-01-10T05:09:27;0.50;51.30
80232;DHT22;74189;42.124;24.752;2024-01-10T05:11:53;0.30;51.10
80232;DHT22;74189;42.124;24.752;2024-01-10T05:14:18;0.30;51.00
80232;DHT22;74189;42.124;24.752;2024-01-10T05:16:45;0.20;50.70
80232;DHT22;74189;42.124;24.752;2024-01-10T05:19:13;0.20;50.60
80232;DHT22;74189;42.124;24.752;2024-01-10T05:21:38;0.20;50.50
80232;DHT22;74189;42.124;24.752;2024-01-10T05:24:05;0.10;50.50
80232;DHT22;74189;42.124;24.752;2024-01-10T05:26:31;0.10;50.70
80232;DHT22;74189;42.124;24.752;2024-01-10T05:43:46;0.10;50.20
80232;DHT22;74189;42.124;24.752;2024-01-10T05:46:12;1.00;50.00
80232;DHT22;74189;42.124;24.752;2024-01-10T05:48:38;0.70;50.30
80232;DHT22;74189;42.124;24.752;2024-01-10T05:51:04;0.70;49.70
80232;DHT22;74189;42.124;24.752;2024-01-10T05:53:29;0.60;49.80
80232;DHT22;74189;42.124;24.752;2024-01-10T05:55:55;0.50;49.60
80232;DHT22;74189;42.124;24.752;2024-01-10T05:58:21;0.50;50.20
80232;DHT22;74189;42.124;24.752;2024-01-10T06:00:46;0.50;50.40
80232;DHT22;74189;42.124;24.752;2024-01-10T06:03:12;0.50;50.60
80232;DHT22;74189;42.124;24.752;2024-01-10T06:05:38;0.50;50.40
80232;DHT22;74189;42.124;24.752;2024-01-10T06:08:03;0.50;50.40
80232;DHT22;74189;42.124;24.752;2024-01-10T06:10:29;0.40;50.70
80232;DHT22;74189;42.124;24.752;2024-01-10T06:12:55;0.00;50.80
80232;DHT22;74189;42.124;24.752;2024-01-10T06:15:21;-0.40;51.40
80232;DHT22;74189;42.124;24.752;2024-01-10T06:17:47;-0.90;51.30
80232;DHT22;74189;42.124;24.752;2024-01-10T06:20:14;-1.20;52.00
80232;DHT22;74189;42.124;24.752;2024-01-10T06:22:39;-1.50;52.90
80232;DHT22;74189;42.124;24.752;2024-01-10T06:25:05;-1.60;53.70
80232;DHT22;74189;42.124;24.752;2024-01-10T06:27:31;-1.60;55.00
80232;DHT22;74189;42.124;24.752;2024-01-10T06:29:56;-1.80;55.40
80232;DHT22;74189;42.124;24.752;2024-01-10T06:32:22;-1.80;56.60
80232;DHT22;74189;42.124;24.752;2024-01-10T06:34:48;-1.80;56.40
80232;DHT22;74189;42.124;24.752;2024-01-10T06:37:13;-1.80;56.20
80232;DHT22;74189;42.124;24.752;2024-01-10T06:39:39;-1.80;56.10
80232;DHT22;74189;42.124;24.752;2024-01-10T06:42:05;-1.90;56.20
80232;DHT22;74189;42.124;24.752;2024-01-10T06:44:31;-1.70;56.20
80232;DHT22;74189;42.124;24.752;2024-01-10T06:46:57;-1.20;55.50
80232;DHT22;74189;42.124;24.752;2024-01-10T06:49:23;-0.70;55.40
80232;DHT22;74189;42.124;24.752;2024-01-10T06:51:49;-0.30;54.60
80232;DHT22;74189;42.124;24.752;2024-01-10T06:54:14;-0.10;55.60
80232;DHT22;74189;42.124;24.752;2024-01-10T06:56:40;-0.10;54.40
80232;DHT22;74189;42.124;24.752;2024-01-10T06:59:06;-0.20;53.50
80232;DHT22;74189;42.124;24.752;2024-01-10T07:01:32;-0.10;52.90
80232;DHT22;74189;42.124;24.752;2024-01-10T07:03:57;0.00;53.80
80232;DHT22;74189;42.124;24.752;2024-01-10T07:06:23;0.10;54.40
80232;DHT22;74189;42.124;24.752;2024-01-10T07:08:50;0.30;54.40
80232;DHT22;74189;42.124;24.752;2024-01-10T07:11:19;0.70;53.30
80232;DHT22;74189;42.124;24.752;2024-01-10T07:13:47;1.20;52.20
80232;DHT22;74189;42.124;24.752;2024-01-10T07:16:13;2.00;51.20
80232;DHT22;74189;42.124;24.752;2024-01-10T07:18:42;2.60;51.80
80232;DHT22;74189;42.124;24.752;2024-01-10T07:21:08;2.50;48.90
80232;DHT22;74189;42.124;24.752;2024-01-10T07:23:34;2.30;49.00
80232;DHT22;74189;42.124;24.752;2024-01-10T07:26:00;2.70;48.80
80232;DHT22;74189;42.124;24.752;2024-01-10T07:28:26;3.30;47.00
80232;DHT22;74189;42.124;24.752;2024-01-10T07:30:52;3.90;45.40
80232;DHT22;74189;42.124;24.752;2024-01-10T07:33:17;4.20;43.90
80232;DHT22;74189;42.124;24.752;2024-01-10T07:35:43;4.50;42.60
80232;DHT22;74189;42.124;24.752;2024-01-10T07:38:09;4.60;41.60
80232;DHT22;74189;42.124;24.752;2024-01-10T07:40:35;4.60;40.90
80232;DHT22;74189;42.124;24.752;2024-01-10T07:43:01;4.40;40.20
80232;DHT22;74189;42.124;24.752;2024-01-10T07:45:27;4.20;40.10
80232;DHT22;74189;42.124;24.752;2024-01-10T07:47:54;4.00;40.50
80232;DHT22;74189;42.124;24.752;2024-01-10T07:50:20;3.70;41.50
80232;DHT22;74189;42.124;24.752;2024-01-10T07:52:46;3.60;41.50
80232;DHT22;74189;42.124;24.752;2024-01-10T07:55:12;3.50;41.90
80232;DHT22;74189;42.124;24.752;2024-01-10T07:57:38;3.40;41.80
80232;DHT22;74189;42.124;24.752;2024-01-10T08:00:07;3.30;41.70
80232;DHT22;74189;42.124;24.752;2024-01-10T08:02:39;3.30;42.00
80232;DHT22;74189;42.124;24.752;2024-01-10T08:05:05;3.40;41.50
80232;DHT22;74189;42.124;24.752;2024-01-10T08:07:34;3.40;41.60
80232;DHT22;74189;42.124;24.752;2024-01-10T08:10:08;3.40;41.90
80232;DHT22;74189;42.124;24.752;2024-01-10T08:12:39;3.30;41.70
80232;DHT22;74189;42.124;24.752;2024-01-10T08:15:05;3.30;41.40
80232;DHT22;74189;42.124;24.752;2024-01-10T08:17:34;3.30;41.40
80232;DHT22;74189;42.124;24.752;2024-01-10T08:20:01;3.30;41.00
80232;DHT22;74189;42.124;24.752;2024-01-10T08:22:29;3.20;40.80
80232;DHT22;74189;42.124;24.752;2024-01-10T08:24:55;3.20;40.70
80232;DHT22;74189;42.124;24.752;2024-01-10T08:27:21;3.20;41.20
80232;DHT22;74189;42.124;24.752;2024-01-10T08:29:47;3.10;41.10
80232;DHT22;74189;42.124;24.752;2024-01-10T08:32:12;3.10;40.90
80232;DHT22;74189;42.124;24.752;2024-01-10T08:34:38;3.10;41.10
80232;DHT22;74189;42.124;24.752;2024-01-10T08:37:04;3.20;41.50
80232;DHT22;74189;42.124;24.752;2024-01-10T08:39:29;3.10;41.40
80232;DHT22;74189;42.124;24.752;2024-01-10T08:41:56;2.90;41.30
80232;DHT22;74189;42.124;24.752;2024-01-10T08:44:22;2.80;41.40
80232;DHT22;74189;42.124;24.752;2024-01-10T08:46:48;2.70;42.00
80232;DHT22;74189;42.124;24.752;2024-01-10T08:49:16;2.70;43.10
80232;DHT22;74189;42.124;24.752;2024-01-10T08:51:42;2.60;43.80
80232;DHT22;74189;42.124;24.752;2024-01-10T08:54:09;2.50;44.80
80232;DHT22;74189;42.124;24.752;2024-01-10T08:56:35;2.50;45.40
80232;DHT22;74189;42.124;24.752;2024-01-10T08:59:00;2.50;45.20
80232;DHT22;74189;42.124;24.752;2024-01-10T09:01:26;2.50;45.00
80232;DHT22;74189;42.124;24.752;2024-01-10T09:03:52;2.50;45.30
80232;DHT22;74189;42.124;24.752;2024-01-10T09:06:18;2.40;45.30
80232;DHT22;74189;42.124;24.752;2024-01-10T09:08:43;2.40;44.80
80232;DHT22;74189;42.124;24.752;2024-01-10T09:11:09;2.40;44.30
80232;DHT22;74189;42.124;24.752;2024-01-10T09:13:35;2.20;43.40
80232;DHT22;74189;42.124;24.752;2024-01-10T09:16:03;2.00;44.20
80232;DHT22;74189;42.124;24.752;2024-01-10T09:18:29;2.00;45.10
80232;DHT22;74189;42.124;24.752;2024-01-10T09:20:55;1.90;45.30
80232;DHT22;74189;42.124;24.752;2024-01-10T09:23:20;2.00;46.10
80232;DHT22;74189;42.124;24.752;2024-01-10T09:25:47;1.90;47.30
80232;DHT22;74189;42.124;24.752;2024-01-10T09:28:13;1.90;46.30
80232;DHT22;74189;42.124;24.752;2024-01-10T09:30:39;2.00;47.80
80232;DHT22;74189;42.124;24.752;2024-01-10T09:33:05;1.90;46.70
80232;DHT22;74189;42.124;24.752;2024-01-10T09:35:30;1.90;47.90
80232;DHT22;74189;42.124;24.752;2024-01-10T09:37:56;2.00;47.20
80232;DHT22;74189;42.124;24.752;2024-01-10T09:40:22;2.00;47.10
80232;DHT22;74189;42.124;24.752;2024-01-10T09:42:49;2.00;46.20
80232;DHT22;74189;42.124;24.752;2024-01-10T09:45:17;2.10;46.40
80232;DHT22;74189;42.124;24.752;2024-01-10T09:47:48;2.10;46.60
80232;DHT22;74189;42.124;24.752;2024-01-10T09:50:13;2.20;46.60
80232;DHT22;74189;42.124;24.752;2024-01-10T09:52:50;2.20;46.70
80232;DHT22;74189;42.124;24.752;2024-01-10T09:55:18;2.10;47.10
80232;DHT22;74189;42.124;24.752;2024-01-10T09:57:45;2.00;47.00
80232;DHT22;74189;42.124;24.752;2024-01-10T10:00:12;1.90;46.80
80232;DHT22;74189;42.124;24.752;2024-01-10T10:02:38;2.00;46.70
80232;DHT22;74189;42.124;24.752;2024-01-10T10:05:16;2.10;47.20
80232;DHT22;74189;42.124;24.752;2024-01-10T10:07:50;2.20;46.90
80232;DHT22;74189;42.124;24.752;2024-01-10T10:10:17;2.30;47.10
80232;DHT22;74189;42.124;24.752;2024-01-10T10:12:53;2.30;47.50
80232;DHT22;74189;42.124;24.752;2024-01-10T10:15:21;2.10;47.40
80232;DHT22;74189;42.124;24.752;2024-01-10T10:17:52;2.10;48.50
80232;DHT22;74189;42.124;24.752;2024-01-10T10:27:55;2.10;50.10
80232;DHT22;74189;42.124;24.752;2024-01-10T10:30:21;2.20;49.70
80232;DHT22;74189;42.124;24.752;2024-01-10T10:32:48;2.30;49.50
80232;DHT22;74189;42.124;24.752;2024-01-10T10:35:13;2.40;49.40
80232;DHT22;74189;42.124;24.752;2024-01-10T10:37:39;2.50;49.20
80232;DHT22;74189;42.124;24.752;2024-01-10T10:40:05;2.40;48.70
80232;DHT22;74189;42.124;24.752;2024-01-10T10:42:34;2.20;48.40
80232;DHT22;74189;42.124;24.752;2024-01-10T10:45:06;2.20;48.70
80232;DHT22;74189;42.124;24.752;2024-01-10T10:47:36;2.00;49.00
80232;DHT22;74189;42.124;24.752;2024-01-10T10:50:04;2.00;49.00
80232;DHT22;74189;42.124;24.752;2024-01-10T10:52:31;2.10;49.00
80232;DHT22;74189;42.124;24.752;2024-01-10T10:54:58;2.10;50.00
80232;DHT22;74189;42.124;24.752;2024-01-10T10:57:26;2.10;49.90
80232;DHT22;74189;42.124;24.752;2024-01-10T10:59:53;2.20;49.50
80232;DHT22;74189;42.124;24.752;2024-01-10T11:02:21;2.10;49.30
80232;DHT22;74189;42.124;24.752;2024-01-10T11:04:50;2.00;48.80
80232;DHT22;74189;42.124;24.752;2024-01-10T11:07:19;2.00;49.20
80232;DHT22;74189;42.124;24.752;2024-01-10T11:09:46;2.10;49.20
80232;DHT22;74189;42.124;24.752;2024-01-10T11:12:20;2.10;49.60
80232;DHT22;74189;42.124;24.752;2024-01-10T11:15:09;2.30;49.50
80232;DHT22;74189;42.124;24.752;2024-01-10T11:17:52;2.10;48.90
80232;DHT22;74189;42.124;24.752;2024-01-10T11:20:38;1.80;49.30
80232;DHT22;74189;42.124;24.752;2024-01-10T11:23:30;1.90;49.20
80232;DHT22;74189;42.124;24.752;2024-01-10T11:26:02;2.10;49.40
80232;DHT22;74189;42.124;24.752;2024-01-10T11:28:31;2.20;48.90
80232;DHT22;74189;42.124;24.752;2024-01-10T11:30:56;2.40;48.80
80232;DHT22;74189;42.124;24.752;2024-01-10T11:33:31;2.50;48.60
80232;DHT22;74189;42.124;24.752;2024-01-10T11:41:05;2.70;48.10
80232;DHT22;74189;42.124;24.752;2024-01-10T11:43:31;2.70;48.40
80232;DHT22;74189;42.124;24.752;2024-01-10T11:45:56;2.70;47.80
80232;DHT22;74189;42.124;24.752;2024-01-10T11:48:28;2.60;48.60
80232;DHT22;74189;42.124;24.752;2024-01-10T11:50:57;2.70;48.90
80232;DHT22;74189;42.124;24.752;2024-01-10T11:53:42;2.70;47.00
80232;DHT22;74189;42.124;24.752;2024-01-10T11:56:15;2.40;47.70
80232;DHT22;74189;42.124;24.752;2024-01-10T12:01:26;2.70;48.20
80232;DHT22;74189;42.124;24.752;2024-01-10T12:03:52;2.60;47.20
80232;DHT22;74189;42.124;24.752;2024-01-10T12:06:21;2.60;46.60
80232;DHT22;74189;42.124;24.752;2024-01-10T12:08:46;2.70;46.90
80232;DHT22;74189;42.124;24.752;2024-01-10T12:11:12;2.70;47.80
80232;DHT22;74189;42.124;24.752;2024-01-10T12:13:38;2.70;47.30
80232;DHT22;74189;42.124;24.752;2024-01-10T12:16:04;2.70;46.80
80232;DHT22;74189;42.124;24.752;2024-01-10T12:18:30;2.70;47.00
80232;DHT22;74189;42.124;24.752;2024-01-10T12:20:56;2.40;47.20
80232;DHT22;74189;42.124;24.752;2024-01-10T12:23:21;2.30;47.10
80232;DHT22;74189;42.124;24.752;2024-01-10T12:25:48;2.20;47.80
80232;DHT22;74189;42.124;24.752;2024-01-10T12:28:17;2.40;47.80
80232;DHT22;74189;42.124;24.752;2024-01-10T12:30:43;2.50;48.00
80232;DHT22;74189;42.124;24.752;2024-01-10T12:33:09;2.60;48.00
80232;DHT22;74189;42.124;24.752;2024-01-10T12:35:35;2.70;48.20
80232;DHT22;74189;42.124;24.752;2024-01-10T12:38:03;2.80;47.80
80232;DHT22;74189;42.124;24.752;2024-01-10T12:40:28;2.80;47.70
80232;DHT22;74189;42.124;24.752;2024-01-10T12:43:06;2.70;47.50
80232;DHT22;74189;42.124;24.752;2024-01-10T12:45:35;2.70;47.30
80232;DHT22;74189;42.124;24.752;2024-01-10T12:48:00;2.60;47.60
80232;DHT22;74189;42.124;24.752;2024-01-10T12:50:28;2.80;48.60
80232;DHT22;74189;42.124;24.752;2024-01-10T12:52:53;2.90;47.80
80232;DHT22;74189;42.124;24.752;2024-01-10T12:55:19;2.90;46.70
80232;DHT22;74189;42.124;24.752;2024-01-10T12:57:44;2.80;47.30
80232;DHT22;74189;42.124;24.752;2024-01-10T13:00:10;2.80;47.50
80232;DHT22;74189;42.124;24.752;2024-01-10T13:02:38;2.70;47.30
80232;DHT22;74189;42.124;24.752;2024-01-10T13:05:04;2.50;49.10
80232;DHT22;74189;42.124;24.752;2024-01-10T13:07:30;2.50;48.50
80232;DHT22;74189;42.124;24.752;2024-01-10T13:09:57;2.60;48.50
80232;DHT22;74189;42.124;24.752;2024-01-10T13:12:23;2.70;48.20
80232;DHT22;74189;42.124;24.752;2024-01-10T13:14:48;2.70;48.40
80232;DHT22;74189;42.124;24.752;2024-01-10T13:17:14;2.90;48.70
80232;DHT22;74189;42.124;24.752;2024-01-10T13:19:40;2.80;48.10
80232;DHT22;74189;42.124;24.752;2024-01-10T13:22:05;2.70;48.10
80232;DHT22;74189;42.124;24.752;2024-01-10T13:24:31;2.70;47.70
80232;DHT22;74189;42.124;24.752;2024-01-10T13:26:56;2.80;47.70
80232;DHT22;74189;42.124;24.752;2024-01-10T13:29:22;2.80;48.00
80232;DHT22;74189;42.124;24.752;2024-01-10T13:31:48;2.90;48.30
80232;DHT22;74189;42.124;24.752;2024-01-10T13:34:14;2.90;48.60
80232;DHT22;74189;42.124;24.752;2024-01-10T13:36:40;2.90;48.60
80232;DHT22;74189;42.124;24.752;2024-01-10T13:39:07;2.70;48.70
80232;DHT22;74189;42.124;24.752;2024-01-10T13:41:32;2.70;48.40
80232;DHT22;74189;42.124;24.752;2024-01-10T13:43:59;2.70;48.90
80232;DHT22;74189;42.124;24.752;2024-01-10T13:46:25;2.80;48.50
80232;DHT22;74189;42.124;24.752;2024-01-10T13:48:51;2.80;48.50
80232;DHT22;74189;42.124;24.752;2024-01-10T13:51:16;2.80;48.50
80232;DHT22;74189;42.124;24.752;2024-01-10T13:53:42;2.80;48.10
80232;DHT22;74189;42.124;24.752;2024-01-10T13:56:08;2.90;48.30
80232;DHT22;74189;42.124;24.752;2024-01-10T13:58:34;2.90;47.90
80232;DHT22;74189;42.124;24.752;2024-01-10T14:00:59;2.90;47.90
80232;DHT22;74189;42.124;24.752;2024-01-10T14:03:25;2.90;47.60
80232;DHT22;74189;42.124;24.752;2024-01-10T14:05:52;2.90;47.90
80232;DHT22;74189;42.124;24.752;2024-01-10T14:08:17;3.00;47.90
80232;DHT22;74189;42.124;24.752;2024-01-10T14:10:43;2.90;48.00
80232;DHT22;74189;42.124;24.752;2024-01-10T14:13:09;2.80;48.90
80232;DHT22;74189;42.124;24.752;2024-01-10T14:15:34;2.80;49.00
80232;DHT22;74189;42.124;24.752;2024-01-10T14:18:00;2.90;48.90
80232;DHT22;74189;42.124;24.752;2024-01-10T14:20:26;2.90;49.10
80232;DHT22;74189;42.124;24.752;2024-01-10T14:22:51;3.00;49.30
80232;DHT22;74189;42.124;24.752;2024-01-10T14:25:17;2.90;49.10
80232;DHT22;74189;42.124;24.752;2024-01-10T14:27:42;2.90;49.40
80232;DHT22;74189;42.124;24.752;2024-01-10T14:30:08;2.90;49.40
80232;DHT22;74189;42.124;24.752;2024-01-10T14:32:34;3.00;49.60
80232;DHT22;74189;42.124;24.752;2024-01-10T14:35:00;3.00;49.80
80232;DHT22;74189;42.124;24.752;2024-01-10T14:37:26;3.00;50.00
80232;DHT22;74189;42.124;24.752;2024-01-10T14:39:52;3.00;50.20
80232;DHT22;74189;42.124;24.752;2024-01-10T14:42:17;3.00;50.80
80232;DHT22;74189;42.124;24.752;2024-01-10T14:44:43;3.00;51.30
80232;DHT22;74189;42.124;24.752;2024-01-10T14:47:10;3.00;51.90
80232;DHT22;74189;42.124;24.752;2024-01-10T14:49:36;3.00;51.70
80232;DHT22;74189;42.124;24.752;2024-01-10T14:52:01;3.00;51.50
80232;DHT22;74189;42.124;24.752;2024-01-10T14:54:27;2.90;51.70
80232;DHT22;74189;42.124;24.752;2024-01-10T14:56:53;2.90;51.70
80232;DHT22;74189;42.124;24.752;2024-01-10T14:59:18;2.90;51.80
80232;DHT22;74189;42.124;24.752;2024-01-10T15:01:45;2.90;52.50
80232;DHT22;74189;42.124;24.752;2024-01-10T15:04:11;2.90;52.60
80232;DHT22;74189;42.124;24.752;2024-01-10T15:06:45;2.80;53.10
80232;DHT22;74189;42.124;24.752;2024-01-10T15:09:11;2.80;53.40
80232;DHT22;74189;42.124;24.752;2024-01-10T15:11:38;2.80;54.30
80232;DHT22;74189;42.124;24.752;2024-01-10T15:14:05;2.80;54.60
80232;DHT22;74189;42.124;24.752;2024-01-10T15:16:31;2.80;55.00
80232;DHT22;74189;42.124;24.752;2024-01-10T15:18:56;2.70;55.10
80232;DHT22;74189;42.124;24.752;2024-01-10T15:21:22;2.70;55.30
80232;DHT22;74189;42.124;24.752;2024-01-10T15:23:48;2.70;55.30
80232;DHT22;74189;42.124;24.752;2024-01-10T15:26:17;2.60;55.50
80232;DHT22;74189;42.124;24.752;2024-01-10T15:28:44;2.60;55.30
80232;DHT22;74189;42.124;24.752;2024-01-10T15:31:19;2.60;55.30
80232;DHT22;74189;42.124;24.752;2024-01-10T15:33:45;2.60;55.30
80232;DHT22;74189;42.124;24.752;2024-01-10T15:36:12;2.50;55.40
80232;DHT22;74189;42.124;24.752;2024-01-10T15:38:39;2.50;55.40
80232;DHT22;74189;42.124;24.752;2024-01-10T15:41:11;2.50;55.50
80232;DHT22;74189;42.124;24.752;2024-01-10T15:43:37;2.50;55.50
80232;DHT22;74189;42.124;24.752;2024-01-10T15:46:03;2.50;55.50
80232;DHT22;74189;42.124;24.752;2024-01-10T15:48:30;2.40;55.60
80232;DHT22;74189;42.124;24.752;2024-01-10T15:50:56;2.40;55.80
80232;DHT22;74189;42.124;24.752;2024-01-10T15:53:23;2.30;55.90
80232;DHT22;74189;42.124;24.752;2024-01-10T15:55:48;2.30;56.00